createdAt,value
2019-03-15T00:00:04.524Z,88.96
2019-03-15T00:03:19.886Z,88.85
2019-03-15T00:05:50.237Z,89.14
2019-03-15T00:08:22.827Z,90.06
2019-03-15T00:11:12.841Z,90.09
2019-03-15T00:14:04.250Z,89.34
2019-03-15T00:16:53.822Z,90.53
2019-03-15T00:19:29.304Z,90.92
2019-03-15T00:22:00.814Z,92.46
2019-03-15T00:24:42.323Z,92.80
2019-03-15T00:27:13.642Z,92.84
2019-03-15T00:29:48.416Z,93.18
2019-03-15T00:32:19.982Z,93.77
2019-03-15T00:35:11.597Z,93.70
2019-03-15T00:38:01.940Z,93.89
2019-03-15T00:40:51.458Z,94.21
2019-03-15T00:43:23.222Z,95.04
2019-03-15T00:45:54.910Z,95.38
2019-03-15T00:48:29.604Z,96.11
2019-03-15T00:51:20.894Z,96.06
2019-03-15T00:53:54.086Z,96.16
2019-03-15T00:56:25.973Z,96.15
2019-03-15T00:58:57.835Z,96.03
2019-03-15T01:01:49.244Z,96.28
2019-03-15T01:04:38.835Z,96.70
2019-03-15T01:07:28.147Z,97.17
2019-03-15T01:10:18.839Z,97.15
2019-03-15T01:13:08.053Z,97.02
2019-03-15T01:15:39.427Z,96.07
2019-03-15T01:18:28.750Z,95.77
2019-03-15T01:20:59.927Z,95.31
2019-03-15T01:23:50.942Z,95.68
2019-03-15T01:26:21.501Z,96.05
2019-03-15T01:28:51.743Z,96.53
2019-03-15T01:31:41.094Z,96.80
2019-03-15T01:34:30.539Z,96.58
2019-03-15T01:37:00.705Z,96.27
2019-03-15T01:39:31.343Z,95.83
2019-03-15T01:42:01.511Z,96.15
2019-03-15T01:44:51.465Z,96.00
2019-03-15T01:47:40.713Z,95.76
2019-03-15T01:50:11.040Z,96.04
2019-03-15T01:52:42.497Z,96.37
2019-03-15T01:55:32.003Z,96.03
2019-03-15T01:58:02.180Z,96.34
2019-03-15T02:03:48.076Z,96.13
2019-03-15T02:06:39.636Z,96.36
2019-03-15T02:09:12.473Z,96.57
2019-03-15T02:11:43.638Z,97.05
2019-03-15T02:14:34.917Z,96.78
2019-03-15T02:17:26.885Z,96.91
2019-03-15T02:19:57.206Z,96.09
2019-03-15T02:22:38.977Z,95.55
2019-03-15T02:25:23.227Z,95.16
2019-03-15T02:28:05.024Z,95.02
2019-03-15T02:30:47.138Z,94.72
2019-03-15T02:33:18.496Z,94.35
2019-03-15T02:35:59.881Z,94.29
2019-03-15T02:38:31.870Z,94.25
2019-03-15T02:41:23.112Z,94.16
2019-03-15T02:44:12.850Z,94.16
2019-03-15T02:47:02.094Z,94.36
2019-03-15T02:49:51.678Z,94.49
2019-03-15T02:52:21.882Z,94.20
2019-03-15T02:54:54.633Z,94.06
2019-03-15T03:00:55.071Z,93.88
2019-03-15T03:03:44.849Z,94.33
2019-03-15T03:06:34.021Z,94.38
2019-03-15T03:09:25.206Z,94.85
2019-03-15T03:15:25.049Z,96.67
2019-03-15T03:21:07.885Z,97.50
2019-03-15T03:23:49.159Z,98.61
2019-03-15T03:32:09.707Z,99.73
2019-03-15T03:37:55.002Z,100.00
2019-03-15T03:40:44.685Z,100.00
2019-03-15T03:43:34.291Z,100.00
2019-03-15T03:46:05.601Z,100.00
2019-03-15T03:48:37.440Z,100.00
2019-03-15T03:51:08.640Z,100.00
2019-03-15T03:53:42.005Z,100.00
2019-03-15T03:56:31.190Z,100.00
2019-03-15T03:59:03.988Z,100.00
2019-03-15T04:01:34.882Z,100.00
2019-03-15T04:04:06.752Z,100.00
2019-03-15T04:06:55.953Z,100.00
2019-03-15T04:09:49.895Z,100.00
2019-03-15T04:12:42.194Z,100.00
2019-03-15T04:15:50.367Z,100.00
2019-03-15T04:18:41.092Z,100.00
2019-03-15T04:21:31.041Z,100.00
2019-03-15T04:24:01.695Z,100.00
2019-03-15T04:26:32.340Z,100.00
2019-03-15T04:29:02.884Z,100.00
2019-03-15T04:31:35.172Z,100.00
2019-03-15T04:34:28.217Z,100.00
2019-03-15T04:37:16.486Z,100.00
2019-03-15T04:40:07.726Z,100.00
2019-03-15T04:42:57.581Z,100.00
2019-03-15T04:45:28.722Z,100.00
2019-03-15T04:48:18.226Z,100.00
2019-03-15T04:51:08.745Z,100.00
2019-03-15T04:53:39.171Z,100.00
2019-03-15T04:56:09.622Z,100.00
2019-03-15T04:58:41.174Z,100.00
2019-03-15T05:04:09.517Z,100.00
2019-03-15T05:06:40.403Z,100.00
2019-03-15T05:09:10.597Z,100.00
2019-03-15T05:11:42.699Z,100.00
2019-03-15T05:15:36.183Z,100.00
2019-03-15T05:18:02.450Z,100.00
2019-03-15T05:20:52.168Z,100.00
2019-03-15T05:23:22.807Z,100.00
2019-03-15T05:26:13.454Z,100.00
2019-03-15T05:28:43.754Z,100.00
2019-03-15T05:31:44.183Z,100.00
2019-03-15T05:34:14.764Z,100.00
2019-03-15T05:36:47.388Z,100.00
2019-03-15T05:39:37.220Z,100.00
2019-03-15T05:42:07.841Z,100.00
2019-03-15T05:44:38.080Z,100.00
2019-03-15T05:47:08.965Z,100.00
2019-03-15T05:49:40.412Z,100.00
2019-03-15T05:52:32.923Z,100.00
2019-03-15T05:55:06.705Z,100.00
2019-03-15T05:57:36.961Z,100.00
2019-03-15T06:00:13.105Z,100.00
2019-03-15T06:02:43.429Z,100.00
2019-03-15T06:05:14.011Z,100.00
2019-03-15T06:08:22.172Z,100.00
2019-03-15T06:11:12.392Z,100.00
2019-03-15T06:14:02.707Z,100.00
2019-03-15T06:16:44.208Z,100.00
2019-03-15T06:22:09.400Z,100.00
2019-03-15T06:24:53.105Z,100.00
2019-03-15T06:27:43.911Z,100.00
2019-03-15T06:30:35.740Z,100.00
2019-03-15T06:33:24.894Z,100.00
2019-03-15T06:36:14.624Z,100.00
2019-03-15T06:38:44.945Z,100.00
2019-03-15T06:41:36.861Z,100.00
2019-03-15T06:44:27.176Z,100.00
2019-03-15T06:46:59.838Z,100.00
2019-03-15T06:49:31.370Z,100.00
2019-03-15T06:52:02.021Z,100.00
2019-03-15T06:54:51.635Z,100.00
2019-03-15T06:57:22.686Z,100.00
2019-03-15T07:00:31.110Z,100.00
2019-03-15T07:03:02.560Z,100.00
2019-03-15T07:05:52.156Z,100.00
2019-03-15T07:08:22.821Z,100.00
2019-03-15T07:10:52.967Z,100.00
2019-03-15T07:13:23.867Z,100.00
2019-03-15T07:15:55.427Z,100.00
2019-03-15T07:18:44.508Z,100.00
2019-03-15T07:21:15.322Z,100.00
2019-03-15T07:23:46.319Z,100.00
2019-03-15T07:26:37.871Z,100.00
2019-03-15T07:29:08.537Z,100.00
2019-03-15T07:31:39.191Z,100.00
2019-03-15T07:34:29.800Z,100.00
2019-03-15T07:37:00.136Z,100.00
2019-03-15T07:39:31.467Z,100.00
2019-03-15T07:42:21.975Z,100.00
2019-03-15T07:45:11.582Z,100.00
2019-03-15T07:48:01.026Z,100.00
2019-03-15T07:53:46.746Z,100.00
2019-03-15T07:56:36.276Z,100.00
2019-03-15T07:59:28.047Z,100.00
2019-03-15T08:01:58.285Z,100.00
2019-03-15T08:04:47.480Z,100.00
2019-03-15T08:07:20.077Z,100.00
2019-03-15T08:09:50.721Z,100.00
2019-03-15T08:12:42.042Z,100.00
2019-03-15T08:15:12.347Z,100.00
2019-03-15T08:17:42.741Z,100.00
2019-03-15T08:20:13.041Z,100.00
2019-03-15T08:25:34.573Z,100.00
2019-03-15T08:28:04.755Z,100.00
2019-03-15T08:30:53.968Z,100.00
2019-03-15T08:33:24.104Z,100.00
2019-03-15T08:35:54.335Z,100.00
2019-03-15T08:38:24.857Z,100.00
2019-03-15T08:40:55.038Z,100.00
2019-03-15T08:43:25.222Z,100.00
2019-03-15T08:45:57.655Z,100.00
2019-03-15T08:48:39.499Z,100.00
2019-03-15T08:51:21.001Z,100.00
2019-03-15T08:54:02.269Z,100.00
2019-03-15T08:56:32.517Z,100.00
2019-03-15T08:59:02.726Z,100.00
2019-03-15T09:01:32.960Z,100.00
2019-03-15T09:04:22.187Z,100.00
2019-03-15T09:06:52.364Z,100.00
2019-03-15T09:09:22.625Z,100.00
2019-03-15T09:12:11.815Z,100.00
2019-03-15T09:14:42.021Z,100.00
2019-03-15T09:17:31.443Z,100.00
2019-03-15T09:20:01.591Z,100.00
2019-03-15T09:22:31.761Z,100.00
2019-03-15T09:25:01.931Z,100.00
2019-03-15T09:27:32.359Z,100.00
2019-03-15T09:30:24.209Z,100.00
2019-03-15T09:33:12.515Z,100.00
2019-03-15T09:36:01.690Z,100.00
2019-03-15T09:39:10.041Z,100.00
2019-03-15T09:41:59.265Z,100.00
2019-03-15T09:44:49.540Z,100.00
2019-03-15T09:47:19.701Z,100.00
2019-03-15T09:49:49.846Z,100.00
2019-03-15T09:52:20.418Z,100.00
2019-03-15T09:55:09.632Z,100.00
2019-03-15T09:57:39.797Z,100.00
2019-03-15T10:00:13.222Z,100.00
2019-03-15T10:02:43.656Z,100.00
2019-03-15T10:05:14.387Z,100.00
2019-03-15T10:07:44.743Z,100.00
2019-03-15T10:10:26.343Z,100.00
2019-03-15T10:13:05.853Z,100.00
2019-03-15T10:15:30.567Z,100.00
2019-03-15T10:18:00.755Z,100.00
2019-03-15T10:20:30.877Z,100.00
2019-03-15T10:23:05.793Z,100.00
2019-03-15T10:25:46.250Z,100.00
2019-03-15T10:28:06.285Z,100.00
2019-03-15T10:30:36.744Z,100.00
2019-03-15T10:33:06.931Z,100.00
2019-03-15T10:35:56.151Z,100.00
2019-03-15T10:38:26.290Z,100.00
2019-03-15T10:40:56.671Z,100.00
2019-03-15T10:43:26.791Z,100.00
2019-03-15T10:45:57.328Z,100.00
2019-03-15T10:48:46.598Z,100.00
2019-03-15T10:51:35.755Z,100.00
2019-03-15T10:54:06.084Z,100.00
2019-03-15T10:56:55.687Z,100.00
2019-03-15T10:59:25.941Z,100.00
2019-03-15T11:01:56.332Z,100.00
2019-03-15T11:04:26.514Z,100.00
2019-03-15T11:07:15.730Z,100.00
2019-03-15T11:10:05.134Z,100.00
2019-03-15T11:12:46.536Z,100.00
2019-03-15T11:15:16.802Z,100.00
2019-03-15T11:17:46.999Z,100.00
2019-03-15T11:20:17.116Z,100.00
2019-03-15T11:22:48.674Z,100.00
2019-03-15T11:25:38.111Z,100.00
2019-03-15T11:28:08.320Z,100.00
2019-03-15T11:30:38.511Z,100.00
2019-03-15T11:33:09.034Z,100.00
2019-03-15T11:35:45.577Z,100.00
2019-03-15T11:38:34.786Z,100.00
2019-03-15T11:41:06.047Z,100.00
2019-03-15T11:43:36.356Z,100.00
2019-03-15T11:46:06.590Z,100.00
2019-03-15T11:48:37.112Z,100.00
2019-03-15T11:51:07.319Z,100.00
2019-03-15T11:53:37.759Z,100.00
2019-03-15T11:56:10.716Z,99.42
2019-03-15T11:58:42.249Z,100.00
2019-03-15T12:01:14.522Z,100.00
2019-03-15T12:03:52.969Z,99.41
2019-03-15T12:06:16.910Z,99.13
2019-03-15T12:08:47.028Z,98.51
2019-03-15T12:11:17.160Z,97.10
2019-03-15T12:13:47.395Z,96.31
2019-03-15T12:16:17.923Z,95.64
2019-03-15T12:19:07.108Z,95.34
2019-03-15T12:21:37.393Z,94.51
2019-03-15T12:24:07.950Z,92.87
2019-03-15T12:26:40.595Z,92.27
2019-03-15T12:29:10.083Z,92.29
2019-03-15T12:31:40.468Z,90.72
2019-03-15T12:34:10.660Z,90.61
2019-03-15T12:36:59.809Z,91.14
2019-03-15T12:39:30.432Z,90.61
2019-03-15T12:42:19.619Z,90.26
2019-03-15T12:44:49.778Z,89.80
2019-03-15T12:47:38.941Z,88.96
2019-03-15T12:50:28.124Z,90.07
2019-03-15T12:52:58.277Z,90.03
2019-03-15T12:55:47.601Z,89.75
2019-03-15T12:58:36.743Z,90.21
2019-03-15T13:01:26.198Z,91.11
2019-03-15T13:04:15.363Z,91.70
2019-03-15T13:07:04.841Z,91.77
2019-03-15T13:09:46.876Z,91.97
2019-03-15T13:12:28.412Z,91.44
2019-03-15T13:15:10.250Z,91.72
2019-03-15T13:20:17.355Z,89.37
2019-03-15T13:23:27.174Z,89.74
2019-03-15T13:26:16.329Z,89.43
2019-03-15T13:28:46.548Z,89.27
2019-03-15T13:31:35.745Z,89.62
2019-03-15T13:34:25.003Z,90.10
2019-03-15T13:37:14.239Z,89.42
2019-03-15T13:40:04.061Z,89.00
2019-03-15T13:42:34.211Z,88.99
2019-03-15T13:45:23.716Z,87.00
2019-03-15T13:47:53.809Z,87.05
2019-03-15T13:50:23.939Z,87.07
2019-03-15T13:53:14.237Z,86.65
2019-03-15T13:55:44.458Z,87.28
2019-03-15T13:58:14.587Z,86.69
2019-03-15T14:01:04.066Z,85.99
2019-03-15T14:03:53.305Z,84.84
2019-03-15T14:06:23.449Z,84.15
2019-03-15T14:09:05.218Z,84.12
2019-03-15T14:11:49.538Z,83.46
2019-03-15T14:14:39.103Z,83.24
2019-03-15T14:17:28.281Z,83.73
2019-03-15T14:20:17.760Z,81.71
2019-03-15T14:23:06.971Z,82.31
2019-03-15T14:25:56.177Z,81.82
2019-03-15T14:28:45.368Z,80.70
2019-03-15T14:31:36.956Z,81.18
2019-03-15T14:34:38.117Z,80.93
2019-03-15T14:40:32.297Z,81.62
2019-03-15T14:43:02.671Z,81.35
2019-03-15T14:45:52.121Z,81.32
2019-03-15T14:48:41.406Z,81.26
2019-03-15T14:51:11.587Z,81.40
2019-03-15T14:54:00.858Z,81.16
2019-03-15T14:56:31.107Z,81.49
2019-03-15T14:59:01.390Z,81.13
2019-03-15T15:01:50.841Z,80.68
2019-03-15T15:04:40.074Z,79.58
2019-03-15T15:07:29.310Z,79.41
2019-03-15T15:10:10.641Z,78.94
2019-03-15T15:12:52.450Z,78.89
2019-03-15T15:15:33.987Z,78.60
2019-03-15T15:18:15.582Z,77.94
2019-03-15T15:20:57.440Z,77.87
2019-03-15T15:23:37.461Z,77.16
2019-03-15T15:26:27.019Z,76.36
2019-03-15T15:28:57.227Z,76.37
2019-03-15T15:31:46.685Z,76.63
2019-03-15T15:34:16.827Z,76.49
2019-03-15T15:37:06.001Z,75.83
2019-03-15T15:39:55.257Z,75.96
2019-03-15T15:42:44.765Z,76.20
2019-03-15T15:45:34.018Z,76.25
2019-03-15T15:48:23.490Z,76.12
2019-03-15T15:51:21.895Z,76.04
2019-03-15T15:53:52.158Z,75.90
2019-03-15T15:56:41.476Z,76.29
2019-03-15T15:59:30.895Z,75.81
2019-03-15T16:02:20.130Z,75.79
2019-03-15T16:05:09.403Z,76.59
2019-03-15T16:07:58.711Z,76.01
2019-03-15T16:10:39.415Z,76.62
2019-03-15T16:13:17.404Z,76.52
2019-03-15T16:16:01.760Z,76.69
2019-03-15T16:18:41.611Z,76.38
2019-03-15T16:21:31.412Z,76.68
2019-03-15T16:33:40.089Z,77.43
2019-03-15T16:39:45.127Z,77.88
2019-03-15T16:42:15.301Z,78.07
2019-03-15T16:44:46.408Z,77.68
2019-03-15T16:47:17.302Z,78.07
2019-03-15T16:52:44.689Z,78.00
2019-03-15T16:55:15.423Z,78.29
2019-03-15T17:00:54.256Z,78.39
2019-03-15T17:03:26.691Z,78.31
2019-03-15T17:09:17.088Z,78.26
2019-03-15T17:12:07.414Z,78.96
2019-03-15T17:14:58.077Z,78.35
2019-03-15T17:17:47.652Z,77.85
2019-03-15T17:20:19.863Z,78.46
2019-03-15T17:23:09.832Z,78.28
2019-03-15T17:28:58.531Z,78.62
2019-03-15T17:31:41.978Z,77.96
2019-03-15T17:34:12.399Z,77.62
2019-03-15T17:36:43.008Z,77.56
2019-03-15T17:42:05.664Z,77.66
2019-03-15T17:44:35.905Z,77.74
2019-03-15T17:47:08.588Z,77.84
2019-03-15T17:49:38.908Z,77.87
2019-03-15T17:52:09.682Z,77.37
2019-03-15T17:54:40.181Z,77.36
2019-03-15T17:57:29.644Z,77.19
2019-03-15T18:00:34.937Z,77.26
2019-03-15T18:03:24.297Z,77.94
2019-03-15T18:05:54.505Z,77.51
2019-03-15T18:08:44.002Z,77.84
2019-03-15T18:11:15.242Z,78.25
2019-03-15T18:16:56.826Z,78.26
2019-03-15T18:19:46.489Z,78.18
2019-03-15T18:22:16.641Z,78.30
2019-03-15T18:24:47.667Z,78.57
2019-03-15T18:27:18.178Z,78.62
2019-03-15T18:30:07.721Z,78.22
2019-03-15T18:32:57.157Z,78.50
2019-03-15T18:35:33.671Z,78.18
2019-03-15T18:38:01.883Z,78.41
2019-03-15T18:40:51.401Z,78.49
2019-03-15T18:43:40.754Z,78.75
2019-03-15T18:46:30.164Z,79.03
2019-03-15T18:49:19.902Z,79.15
2019-03-15T18:55:05.212Z,78.87
2019-03-15T18:57:37.845Z,78.55
2019-03-15T19:00:11.476Z,78.58
2019-03-15T19:02:42.682Z,79.11
2019-03-15T19:05:33.151Z,78.56
2019-03-15T19:08:22.522Z,78.37
2019-03-15T19:11:14.229Z,78.26
2019-03-15T19:14:22.322Z,78.68
2019-03-15T19:16:53.543Z,78.55
2019-03-15T19:19:50.059Z,78.52
2019-03-15T19:22:20.651Z,78.11
2019-03-15T19:24:54.487Z,78.17
2019-03-15T19:27:34.707Z,78.16
2019-03-15T19:30:10.969Z,77.95
2019-03-15T19:32:43.213Z,78.16
2019-03-15T19:35:17.800Z,78.15
2019-03-15T19:38:09.727Z,78.21
2019-03-15T19:43:50.355Z,78.09
2019-03-15T19:46:39.809Z,78.39
2019-03-15T19:49:11.574Z,78.40
2019-03-15T19:52:05.468Z,78.23
2019-03-15T19:54:38.103Z,78.06
2019-03-15T19:57:10.614Z,78.58
2019-03-15T20:00:08.054Z,78.63
2019-03-15T20:02:53.857Z,79.10
2019-03-15T20:05:44.582Z,79.13
2019-03-15T20:08:14.846Z,79.78
2019-03-15T20:11:07.259Z,80.85
2019-03-15T20:13:38.007Z,81.95
2019-03-15T20:16:08.425Z,83.82
2019-03-15T20:18:58.065Z,85.10
2019-03-15T20:21:47.402Z,86.25
2019-03-15T20:24:18.161Z,86.68
2019-03-15T20:27:09.575Z,87.46
2019-03-15T20:30:00.546Z,87.69
2019-03-15T20:35:44.028Z,87.53
2019-03-15T20:44:00.318Z,88.22
2019-03-15T20:46:35.767Z,87.67
2019-03-15T20:49:02.833Z,88.33
2019-03-15T20:52:11.335Z,88.92
2019-03-15T20:55:03.029Z,89.27
2019-03-15T20:57:34.135Z,88.67
2019-03-15T21:00:34.788Z,88.68
2019-03-15T21:03:15.498Z,88.72
2019-03-15T21:05:49.475Z,89.34
2019-03-15T21:08:22.026Z,89.69
2019-03-15T21:10:56.413Z,90.51
2019-03-15T21:16:23.536Z,91.42
2019-03-15T21:18:54.681Z,91.72
2019-03-15T21:21:44.773Z,91.56
2019-03-15T21:24:15.187Z,91.62
2019-03-15T21:26:45.379Z,91.57
2019-03-15T21:29:27.191Z,91.16
2019-03-15T21:31:57.722Z,91.04
2019-03-15T21:34:27.876Z,90.57
2019-03-15T21:36:58.137Z,90.72
2019-03-15T21:39:28.628Z,91.08
2019-03-15T21:42:01.106Z,91.38
2019-03-15T21:44:50.385Z,90.85
2019-03-15T21:47:22.094Z,90.67
2019-03-15T21:49:53.613Z,90.03
2019-03-15T21:52:23.854Z,90.23
2019-03-15T21:54:56.471Z,90.27
2019-03-15T21:57:45.689Z,90.27
2019-03-15T22:00:15.951Z,90.53
2019-03-15T22:03:05.140Z,90.53
2019-03-15T22:05:54.730Z,91.16
2019-03-15T22:08:44.310Z,91.90
2019-03-15T22:11:21.172Z,92.33
2019-03-15T22:14:07.443Z,92.35
2019-03-15T22:16:56.609Z,91.50
2019-03-15T22:20:04.957Z,92.28
2019-03-15T22:22:54.172Z,91.88
2019-03-15T22:25:44.345Z,92.16
2019-03-15T22:28:33.990Z,92.19
2019-03-15T22:31:16.970Z,91.76
2019-03-15T22:33:46.362Z,91.96
2019-03-15T22:36:35.808Z,90.62
2019-03-15T22:39:25.100Z,91.27
2019-03-15T22:41:55.506Z,92.00
2019-03-15T22:44:45.011Z,93.03
2019-03-15T22:47:34.431Z,92.35
2019-03-15T22:50:23.615Z,92.16
2019-03-15T22:52:54.021Z,92.93
2019-03-15T22:55:35.022Z,93.26
2019-03-15T22:58:14.882Z,92.88
2019-03-15T23:01:04.291Z,93.21
2019-03-15T23:03:34.405Z,94.49
2019-03-15T23:06:23.921Z,94.47
2019-03-15T23:09:13.102Z,94.01
2019-03-15T23:12:02.610Z,94.12
2019-03-15T23:14:32.795Z,92.88
2019-03-15T23:17:02.976Z,93.57
2019-03-15T23:19:52.188Z,94.36
2019-03-15T23:22:41.456Z,93.66
2019-03-15T23:25:31.001Z,94.56
2019-03-15T23:28:12.764Z,94.51
2019-03-15T23:30:54.417Z,94.59
2019-03-15T23:33:35.759Z,93.55
2019-03-15T23:36:08.630Z,95.16
2019-03-15T23:38:38.879Z,95.42
2019-03-15T23:41:32.207Z,94.26
2019-03-15T23:44:02.569Z,96.81
2019-03-15T23:50:20.953Z,97.33
2019-03-15T23:53:10.555Z,96.72
2019-03-15T23:56:01.341Z,96.35
2019-03-15T23:58:50.598Z,97.40
